sensor_id;sensor_type;location;lat;lon;timestamp;pressure;altitude;pressure_sealevel;temperature;humidity
41040;BME280;48586;50.122;18.972;2023-02-04T00:02:06;97852.38;;;2.01;84.45
41040;BME280;48586;50.122;18.972;2023-02-04T00:04:11;97841.81;;;1.94;85.04
41040;BME280;48586;50.122;18.972;2023-02-04T00:06:15;97842.66;;;1.95;85.65
41040;BME280;48586;50.122;18.972;2023-02-04T00:08:21;97837.78;;;1.98;85.31
41040;BME280;48586;50.122;18.972;2023-02-04T00:10:25;97858.78;;;1.92;84.94
41040;BME280;48586;50.122;18.972;2023-02-04T00:12:29;97840.03;;;1.95;85.08
41040;BME280;48586;50.122;18.972;2023-02-04T00:14:35;97840.41;;;1.98;84.57
41040;BME280;48586;50.122;18.972;2023-02-04T00:16:39;97836.41;;;2.03;84.63
41040;BME280;48586;50.122;18.972;2023-02-04T00:18:45;97838.03;;;2.04;84.16
41040;BME280;48586;50.122;18.972;2023-02-04T00:20:50;97840.47;;;2.05;83.79
41040;BME280;48586;50.122;18.972;2023-02-04T00:22:54;97832.81;;;2.10;83.57
41040;BME280;48586;50.122;18.972;2023-02-04T00:24:58;97838.06;;;2.10;83.36
41040;BME280;48586;50.122;18.972;2023-02-04T00:27:04;97837.88;;;2.12;83.19
41040;BME280;48586;50.122;18.972;2023-02-04T00:29:08;97846.59;;;2.12;83.14
41040;BME280;48586;50.122;18.972;2023-02-04T00:31:12;97836.47;;;2.16;82.85
41040;BME280;48586;50.122;18.972;2023-02-04T00:33:17;97845.78;;;2.18;82.79
41040;BME280;48586;50.122;18.972;2023-02-04T00:35:24;97837.53;;;2.21;82.55
41040;BME280;48586;50.122;18.972;2023-02-04T00:37:28;97840.25;;;2.07;82.41
41040;BME280;48586;50.122;18.972;2023-02-04T00:39:33;97840.47;;;2.05;82.48
41040;BME280;48586;50.122;18.972;2023-02-04T00:41:37;97837.25;;;2.10;82.64
41040;BME280;48586;50.122;18.972;2023-02-04T00:43:41;97850.78;;;2.07;82.61
41040;BME280;48586;50.122;18.972;2023-02-04T00:45:46;97852.56;;;2.00;82.96
41040;BME280;48586;50.122;18.972;2023-02-04T00:47:50;97843.69;;;2.07;82.90
41040;BME280;48586;50.122;18.972;2023-02-04T00:49:54;97846.31;;;2.07;82.73
41040;BME280;48586;50.122;18.972;2023-02-04T00:52:01;97837.47;;;2.08;82.67
41040;BME280;48586;50.122;18.972;2023-02-04T00:54:06;97830.63;;;2.14;82.87
41040;BME280;48586;50.122;18.972;2023-02-04T00:56:10;97836.06;;;2.12;82.70
41040;BME280;48586;50.122;18.972;2023-02-04T00:58:15;97837.84;;;2.05;82.99
41040;BME280;48586;50.122;18.972;2023-02-04T01:00:19;97835.44;;;2.10;82.99
41040;BME280;48586;50.122;18.972;2023-02-04T01:02:23;97833.63;;;2.11;82.69
41040;BME280;48586;50.122;18.972;2023-02-04T01:04:28;97814.19;;;2.05;82.88
41040;BME280;48586;50.122;18.972;2023-02-04T01:06:32;97835.06;;;2.13;82.88
41040;BME280;48586;50.122;18.972;2023-02-04T01:08:39;97820.84;;;2.01;82.84
41040;BME280;48586;50.122;18.972;2023-02-04T01:10:44;97822.47;;;2.02;83.14
41040;BME280;48586;50.122;18.972;2023-02-04T01:12:48;97813.56;;;2.03;83.34
41040;BME280;48586;50.122;18.972;2023-02-04T01:14:52;97818.41;;;2.00;83.17
41040;BME280;48586;50.122;18.972;2023-02-04T01:16:57;97797.41;;;2.00;83.43
41040;BME280;48586;50.122;18.972;2023-02-04T01:19:01;97804.72;;;2.04;83.59
41040;BME280;48586;50.122;18.972;2023-02-04T01:21:05;97799.84;;;2.01;83.69
41040;BME280;48586;50.122;18.972;2023-02-04T01:23:10;97791.94;;;2.01;84.24
41040;BME280;48586;50.122;18.972;2023-02-04T01:25:17;97800.03;;;2.00;84.71
41040;BME280;48586;50.122;18.972;2023-02-04T01:27:21;97790.50;;;1.92;84.72
41040;BME280;48586;50.122;18.972;2023-02-04T01:29:26;97790.66;;;1.90;84.63
41040;BME280;48586;50.122;18.972;2023-02-04T01:31:30;97782.13;;;1.82;84.81
41040;BME280;48586;50.122;18.972;2023-02-04T01:33:36;97783.00;;;1.89;84.83
41040;BME280;48586;50.122;18.972;2023-02-04T01:35:41;97773.50;;;1.88;84.36
41040;BME280;48586;50.122;18.972;2023-02-04T01:37:45;97782.63;;;1.92;84.26
41040;BME280;48586;50.122;18.972;2023-02-04T01:39:49;97785.25;;;1.92;83.84
41040;BME280;48586;50.122;18.972;2023-02-04T01:41:56;97789.09;;;1.96;83.61
41040;BME280;48586;50.122;18.972;2023-02-04T01:44:00;97783.03;;;1.95;83.76
41040;BME280;48586;50.122;18.972;2023-02-04T01:46:06;97790.13;;;1.95;83.53
41040;BME280;48586;50.122;18.972;2023-02-04T01:48:11;97794.34;;;1.96;83.60
41040;BME280;48586;50.122;18.972;2023-02-04T01:50:20;97796.78;;;1.97;83.52
41040;BME280;48586;50.122;18.972;2023-02-04T01:52:24;97811.78;;;2.04;83.63
41040;BME280;48586;50.122;18.972;2023-02-04T01:54:38;97813.56;;;2.03;83.14
41040;BME280;48586;50.122;18.972;2023-02-04T01:56:45;97801.81;;;1.99;83.06
41040;BME280;48586;50.122;18.972;2023-02-04T01:58:56;97808.72;;;2.00;82.42
41040;BME280;48586;50.122;18.972;2023-02-04T02:01:05;97817.56;;;1.92;81.05
41040;BME280;48586;50.122;18.972;2023-02-04T02:03:15;97842.38;;;1.90;81.30
41040;BME280;48586;50.122;18.972;2023-02-04T02:05:22;97830.63;;;1.86;80.74
41040;BME280;48586;50.122;18.972;2023-02-04T02:07:29;97814.13;;;1.92;80.50
41040;BME280;48586;50.122;18.972;2023-02-04T02:09:34;97835.97;;;1.99;79.59
41040;BME280;48586;50.122;18.972;2023-02-04T02:11:40;97850.34;;;2.03;79.51
41040;BME280;48586;50.122;18.972;2023-02-04T02:13:45;97842.09;;;2.06;79.42
41040;BME280;48586;50.122;18.972;2023-02-04T02:15:52;97847.34;;;2.06;78.36
41040;BME280;48586;50.122;18.972;2023-02-04T02:17:56;97850.53;;;2.02;78.20
41040;BME280;48586;50.122;18.972;2023-02-04T02:20:01;97854.94;;;1.94;78.03
41040;BME280;48586;50.122;18.972;2023-02-04T02:22:12;97870.16;;;1.71;77.40
41040;BME280;48586;50.122;18.972;2023-02-04T02:24:28;97865.38;;;1.53;78.96
41040;BME280;48586;50.122;18.972;2023-02-04T02:26:35;97863.25;;;1.42;79.16
41040;BME280;48586;50.122;18.972;2023-02-04T02:28:39;97865.63;;;1.37;79.21
41040;BME280;48586;50.122;18.972;2023-02-04T02:30:45;97872.22;;;1.26;79.47
41040;BME280;48586;50.122;18.972;2023-02-04T02:32:51;97868.38;;;1.07;79.80
41040;BME280;48586;50.122;18.972;2023-02-04T02:34:55;97885.31;;;1.05;79.75
41040;BME280;48586;50.122;18.972;2023-02-04T02:37:02;97874.75;;;0.98;79.94
41040;BME280;48586;50.122;18.972;2023-02-04T02:39:10;97886.69;;;1.01;79.97
41040;BME280;48586;50.122;18.972;2023-02-04T02:41:17;97899.00;;;1.00;80.21
41040;BME280;48586;50.122;18.972;2023-02-04T02:43:23;97903.34;;;0.93;80.13
41040;BME280;48586;50.122;18.972;2023-02-04T02:45:31;97908.78;;;0.91;80.25
41040;BME280;48586;50.122;18.972;2023-02-04T02:47:37;97904.44;;;0.84;80.05
41040;BME280;48586;50.122;18.972;2023-02-04T02:49:42;97905.25;;;0.84;80.38
41040;BME280;48586;50.122;18.972;2023-02-04T02:51:48;97902.00;;;0.82;80.20
41040;BME280;48586;50.122;18.972;2023-02-04T02:53:52;97909.59;;;0.77;80.06
41040;BME280;48586;50.122;18.972;2023-02-04T02:55:57;97913.22;;;0.76;80.15
41040;BME280;48586;50.122;18.972;2023-02-04T02:58:15;97915.94;;;0.68;80.13
41040;BME280;48586;50.122;18.972;2023-02-04T03:00:28;97906.00;;;0.63;80.28
41040;BME280;48586;50.122;18.972;2023-02-04T03:02:33;97918.38;;;0.69;80.48
41040;BME280;48586;50.122;18.972;2023-02-04T03:04:41;97909.25;;;0.65;80.49
41040;BME280;48586;50.122;18.972;2023-02-04T03:06:52;97914.78;;;0.56;80.48
41040;BME280;48586;50.122;18.972;2023-02-04T03:08:57;97915.34;;;0.51;80.43
41040;BME280;48586;50.122;18.972;2023-02-04T03:11:02;97913.72;;;0.50;80.64
41040;BME280;48586;50.122;18.972;2023-02-04T03:13:08;97920.50;;;0.44;80.63
41040;BME280;48586;50.122;18.972;2023-02-04T03:15:16;97923.28;;;0.43;80.66
41040;BME280;48586;50.122;18.972;2023-02-04T03:17:21;97921.66;;;0.42;80.80
41040;BME280;48586;50.122;18.972;2023-02-04T03:19:27;97932.78;;;0.44;80.75
41040;BME280;48586;50.122;18.972;2023-02-04T03:21:31;97935.41;;;0.44;81.08
41040;BME280;48586;50.122;18.972;2023-02-04T03:23:38;97935.56;;;0.42;80.83
41040;BME280;48586;50.122;18.972;2023-02-04T03:25:43;97942.44;;;0.43;80.92
41040;BME280;48586;50.122;18.972;2023-02-04T03:27:47;97944.69;;;0.46;81.17
41040;BME280;48586;50.122;18.972;2023-02-04T03:29:55;97947.69;;;0.43;80.63
41040;BME280;48586;50.122;18.972;2023-02-04T03:31:59;97946.41;;;0.39;80.77
41040;BME280;48586;50.122;18.972;2023-02-04T03:34:06;97953.47;;;0.39;80.83
41040;BME280;48586;50.122;18.972;2023-02-04T03:36:11;97958.34;;;0.42;80.69
41040;BME280;48586;50.122;18.972;2023-02-04T03:38:15;97960.34;;;0.40;80.94
41040;BME280;48586;50.122;18.972;2023-02-04T03:40:19;97965.94;;;0.37;81.03
41040;BME280;48586;50.122;18.972;2023-02-04T03:42:24;97969.19;;;0.39;81.22
41040;BME280;48586;50.122;18.972;2023-02-04T03:44:28;97975.22;;;0.39;81.01
41040;BME280;48586;50.122;18.972;2023-02-04T03:46:35;97980.66;;;0.38;81.12
41040;BME280;48586;50.122;18.972;2023-02-04T03:48:40;97982.13;;;0.40;81.04
41040;BME280;48586;50.122;18.972;2023-02-04T03:50:44;97982.19;;;0.47;81.28
41040;BME280;48586;50.122;18.972;2023-02-04T03:52:48;97993.78;;;0.53;80.88
41040;BME280;48586;50.122;18.972;2023-02-04T03:54:54;97998.66;;;0.56;80.80
41040;BME280;48586;50.122;18.972;2023-02-04T03:56:58;98004.09;;;0.54;80.43
41040;BME280;48586;50.122;18.972;2023-02-04T03:59:02;98018.19;;;0.53;80.23
41040;BME280;48586;50.122;18.972;2023-02-04T04:01:07;98016.53;;;0.52;80.29
41040;BME280;48586;50.122;18.972;2023-02-04T04:03:14;98034.53;;;0.55;80.45
41040;BME280;48586;50.122;18.972;2023-02-04T04:05:18;98032.72;;;0.56;80.35
41040;BME280;48586;50.122;18.972;2023-02-04T04:07:23;98038.78;;;0.56;80.06
41040;BME280;48586;50.122;18.972;2023-02-04T04:09:27;98051.25;;;0.54;79.99
41040;BME280;48586;50.122;18.972;2023-02-04T04:11:31;98060.66;;;0.49;79.79
41040;BME280;48586;50.122;18.972;2023-02-04T04:13:36;98080.28;;;0.53;79.47
41040;BME280;48586;50.122;18.972;2023-02-04T04:15:40;98091.38;;;0.55;79.64
41040;BME280;48586;50.122;18.972;2023-02-04T04:17:44;98101.06;;;0.54;79.63
41040;BME280;48586;50.122;18.972;2023-02-04T04:19:51;98117.41;;;0.56;79.93
41040;BME280;48586;50.122;18.972;2023-02-04T04:21:55;98140.00;;;0.57;79.54
41040;BME280;48586;50.122;18.972;2023-02-04T04:23:59;98152.13;;;0.58;78.77
41040;BME280;48586;50.122;18.972;2023-02-04T04:26:04;98172.44;;;0.56;78.29
41040;BME280;48586;50.122;18.972;2023-02-04T04:28:08;98177.41;;;0.51;77.11
41040;BME280;48586;50.122;18.972;2023-02-04T04:30:14;98204.59;;;0.50;77.33
41040;BME280;48586;50.122;18.972;2023-02-04T04:32:19;98219.03;;;0.46;76.53
41040;BME280;48586;50.122;18.972;2023-02-04T04:34:23;98235.09;;;0.43;76.60
41040;BME280;48586;50.122;18.972;2023-02-04T04:36:29;98250.19;;;0.41;76.87
41040;BME280;48586;50.122;18.972;2023-02-04T04:38:34;98259.06;;;0.40;77.00
41040;BME280;48586;50.122;18.972;2023-02-04T04:40:38;98265.09;;;0.40;77.46
41040;BME280;48586;50.122;18.972;2023-02-04T04:42:42;98289.66;;;0.39;77.31
41040;BME280;48586;50.122;18.972;2023-02-04T04:44:47;98300.50;;;0.36;77.02
41040;BME280;48586;50.122;18.972;2023-02-04T04:46:51;98316.38;;;0.35;76.85
41040;BME280;48586;50.122;18.972;2023-02-04T04:48:55;98322.50;;;0.27;76.21
41040;BME280;48586;50.122;18.972;2023-02-04T04:50:59;98348.34;;;0.22;75.48
41040;BME280;48586;50.122;18.972;2023-02-04T04:53:07;98360.19;;;0.18;75.59
41040;BME280;48586;50.122;18.972;2023-02-04T04:55:11;98362.97;;;0.16;74.94
41040;BME280;48586;50.122;18.972;2023-02-04T04:57:16;98370.03;;;0.08;75.10
41040;BME280;48586;50.122;18.972;2023-02-04T04:59:20;98389.53;;;0.05;75.38
41040;BME280;48586;50.122;18.972;2023-02-04T05:01:24;98410.63;;;0.04;75.82
41040;BME280;48586;50.122;18.972;2023-02-04T05:03:28;98415.72;;;0.05;76.15
41040;BME280;48586;50.122;18.972;2023-02-04T05:05:32;98434.38;;;0.02;75.90
41040;BME280;48586;50.122;18.972;2023-02-04T05:07:40;98439.75;;;0.01;76.00
41040;BME280;48586;50.122;18.972;2023-02-04T05:09:47;98450.41;;;-0.01;75.68
41040;BME280;48586;50.122;18.972;2023-02-04T05:11:51;98453.19;;;-0.02;75.35
41040;BME280;48586;50.122;18.972;2023-02-04T05:13:55;98478.06;;;-0.07;75.13
41040;BME280;48586;50.122;18.972;2023-02-04T05:16:00;98491.31;;;-0.08;75.07
41040;BME280;48586;50.122;18.972;2023-02-04T05:18:04;98509.81;;;-0.10;75.18
41040;BME280;48586;50.122;18.972;2023-02-04T05:20:09;98517.84;;;-0.11;75.47
41040;BME280;48586;50.122;18.972;2023-02-04T05:22:15;98527.50;;;-0.12;75.46
41040;BME280;48586;50.122;18.972;2023-02-04T05:24:19;98541.56;;;-0.13;74.80
41040;BME280;48586;50.122;18.972;2023-02-04T05:26:25;98552.19;;;-0.14;74.79
41040;BME280;48586;50.122;18.972;2023-02-04T05:28:30;98572.31;;;-0.15;74.95
41040;BME280;48586;50.122;18.972;2023-02-04T05:30:34;98578.38;;;-0.14;74.91
41040;BME280;48586;50.122;18.972;2023-02-04T05:32:38;98594.09;;;-0.14;75.02
41040;BME280;48586;50.122;18.972;2023-02-04T05:34:43;98596.06;;;-0.16;74.13
41040;BME280;48586;50.122;18.972;2023-02-04T05:36:48;98618.31;;;-0.20;73.54
41040;BME280;48586;50.122;18.972;2023-02-04T05:38:52;98628.09;;;-0.22;73.88
41040;BME280;48586;50.122;18.972;2023-02-04T05:40:56;98643.00;;;-0.23;73.92
41040;BME280;48586;50.122;18.972;2023-02-04T05:43:03;98659.84;;;-0.25;74.28
41040;BME280;48586;50.122;18.972;2023-02-04T05:45:09;98676.38;;;-0.25;74.05
41040;BME280;48586;50.122;18.972;2023-02-04T05:47:19;98679.00;;;-0.25;74.05
41040;BME280;48586;50.122;18.972;2023-02-04T05:49:23;98695.66;;;-0.26;73.95
41040;BME280;48586;50.122;18.972;2023-02-04T05:51:27;98713.50;;;-0.30;74.00
41040;BME280;48586;50.122;18.972;2023-02-04T05:53:32;98724.88;;;-0.39;73.65
41040;BME280;48586;50.122;18.972;2023-02-04T05:55:36;98750.75;;;-0.36;74.10
41040;BME280;48586;50.122;18.972;2023-02-04T05:57:40;98761.22;;;-0.36;74.37
41040;BME280;48586;50.122;18.972;2023-02-04T05:59:47;98773.34;;;-0.35;74.22
41040;BME280;48586;50.122;18.972;2023-02-04T06:01:51;98787.72;;;-0.39;73.95
41040;BME280;48586;50.122;18.972;2023-02-04T06:03:55;98811.25;;;-0.39;73.77
41040;BME280;48586;50.122;18.972;2023-02-04T06:06:00;98815.84;;;-0.41;73.68
41040;BME280;48586;50.122;18.972;2023-02-04T06:08:06;98829.09;;;-0.42;73.64
41040;BME280;48586;50.122;18.972;2023-02-04T06:10:10;98838.72;;;-0.43;73.36
41040;BME280;48586;50.122;18.972;2023-02-04T06:12:15;98854.28;;;-0.41;73.69
41040;BME280;48586;50.122;18.972;2023-02-04T06:14:19;98867.50;;;-0.43;73.16
41040;BME280;48586;50.122;18.972;2023-02-04T06:16:26;98883.06;;;-0.41;73.60
41040;BME280;48586;50.122;18.972;2023-02-04T06:18:30;98891.91;;;-0.42;73.19
41040;BME280;48586;50.122;18.972;2023-02-04T06:20:34;98905.94;;;-0.43;72.70
41040;BME280;48586;50.122;18.972;2023-02-04T06:22:38;98913.97;;;-0.45;72.63
41040;BME280;48586;50.122;18.972;2023-02-04T06:24:43;98935.88;;;-0.46;73.00
41040;BME280;48586;50.122;18.972;2023-02-04T06:26:47;98934.06;;;-0.45;72.57
41040;BME280;48586;50.122;18.972;2023-02-04T06:28:51;98938.50;;;-0.46;71.85
41040;BME280;48586;50.122;18.972;2023-02-04T06:30:56;98955.84;;;-0.45;71.94
41040;BME280;48586;50.122;18.972;2023-02-04T06:33:03;98966.47;;;-0.46;70.85
41040;BME280;48586;50.122;18.972;2023-02-04T06:35:07;98977.06;;;-0.48;71.50
41040;BME280;48586;50.122;18.972;2023-02-04T06:37:13;98994.09;;;-0.44;71.64
41040;BME280;48586;50.122;18.972;2023-02-04T06:39:17;98996.59;;;-0.42;71.48
41040;BME280;48586;50.122;18.972;2023-02-04T06:41:21;99014.75;;;-0.41;71.36
41040;BME280;48586;50.122;18.972;2023-02-04T06:43:26;99016.56;;;-0.41;71.19
41040;BME280;48586;50.122;18.972;2023-02-04T06:45:31;99034.06;;;-0.42;71.10
41040;BME280;48586;50.122;18.972;2023-02-04T06:47:35;99039.97;;;-0.40;71.01
41040;BME280;48586;50.122;18.972;2023-02-04T06:49:43;99053.72;;;-0.38;70.83
41040;BME280;48586;50.122;18.972;2023-02-04T06:51:47;99058.00;;;-0.37;70.83
41040;BME280;48586;50.122;18.972;2023-02-04T06:53:51;99059.09;;;-0.39;70.33
41040;BME280;48586;50.122;18.972;2023-02-04T06:55:56;99082.81;;;-0.41;70.07
41040;BME280;48586;50.122;18.972;2023-02-04T06:58:00;99087.06;;;-0.40;70.81
41040;BME280;48586;50.122;18.972;2023-02-04T07:00:11;99098.91;;;-0.36;70.83
41040;BME280;48586;50.122;18.972;2023-02-04T07:02:30;99113.94;;;-0.38;70.94
41040;BME280;48586;50.122;18.972;2023-02-04T07:04:52;99121.09;;;-0.40;70.28
41040;BME280;48586;50.122;18.972;2023-02-04T07:07:11;99131.03;;;-0.43;70.29
41040;BME280;48586;50.122;18.972;2023-02-04T07:09:30;99139.03;;;-0.45;70.73
41040;BME280;48586;50.122;18.972;2023-02-04T07:11:49;99145.53;;;-0.49;70.08
41040;BME280;48586;50.122;18.972;2023-02-04T07:14:08;99155.19;;;-0.49;70.12
41040;BME280;48586;50.122;18.972;2023-02-04T07:16:27;99161.94;;;-0.47;70.50
41040;BME280;48586;50.122;18.972;2023-02-04T07:18:46;99170.16;;;-0.42;70.31
41040;BME280;48586;50.122;18.972;2023-02-04T07:21:08;99188.06;;;-0.37;69.90
41040;BME280;48586;50.122;18.972;2023-02-04T07:23:39;99203.06;;;-0.39;69.59
41040;BME280;48586;50.122;18.972;2023-02-04T07:25:58;99206.00;;;-0.42;68.91
41040;BME280;48586;50.122;18.972;2023-02-04T07:28:17;99222.13;;;-0.47;68.56
41040;BME280;48586;50.122;18.972;2023-02-04T07:30:35;99225.69;;;-0.48;68.85
41040;BME280;48586;50.122;18.972;2023-02-04T07:32:54;99236.69;;;-0.44;68.74
41040;BME280;48586;50.122;18.972;2023-02-04T07:35:13;99235.72;;;-0.43;68.00
41040;BME280;48586;50.122;18.972;2023-02-04T07:37:38;99233.81;;;-0.41;68.36
41040;BME280;48586;50.122;18.972;2023-02-04T07:39:57;99240.53;;;-0.39;67.73
41040;BME280;48586;50.122;18.972;2023-02-04T07:42:16;99259.69;;;-0.38;67.83
41040;BME280;48586;50.122;18.972;2023-02-04T07:44:42;99258.56;;;-0.36;67.90
41040;BME280;48586;50.122;18.972;2023-02-04T07:47:01;99261.88;;;-0.34;68.01
41040;BME280;48586;50.122;18.972;2023-02-04T07:49:20;99261.34;;;-0.37;67.35
41040;BME280;48586;50.122;18.972;2023-02-04T07:51:41;99270.03;;;-0.37;67.90
41040;BME280;48586;50.122;18.972;2023-02-04T07:54:03;99280.50;;;-0.37;67.97
41040;BME280;48586;50.122;18.972;2023-02-04T07:56:28;99283.09;;;-0.37;67.66
41040;BME280;48586;50.122;18.972;2023-02-04T07:58:48;99292.75;;;-0.37;67.25
41040;BME280;48586;50.122;18.972;2023-02-04T08:01:07;99292.06;;;-0.39;67.00
41040;BME280;48586;50.122;18.972;2023-02-04T08:03:29;99308.19;;;-0.44;65.73
41040;BME280;48586;50.122;18.972;2023-02-04T08:05:48;99316.34;;;-0.47;65.63
41040;BME280;48586;50.122;18.972;2023-02-04T08:08:09;99330.09;;;-0.45;67.13
41040;BME280;48586;50.122;18.972;2023-02-04T08:10:32;99329.84;;;-0.42;66.95
41040;BME280;48586;50.122;18.972;2023-02-04T08:12:51;99336.94;;;-0.34;66.99
41040;BME280;48586;50.122;18.972;2023-02-04T08:15:11;99339.56;;;-0.34;66.32
41040;BME280;48586;50.122;18.972;2023-02-04T08:17:33;99345.50;;;-0.32;65.63
41040;BME280;48586;50.122;18.972;2023-02-04T08:19:56;99357.06;;;-0.35;65.37
41040;BME280;48586;50.122;18.972;2023-02-04T08:22:15;99357.06;;;-0.35;64.54
41040;BME280;48586;50.122;18.972;2023-02-04T08:24:37;99370.88;;;-0.33;64.57
41040;BME280;48586;50.122;18.972;2023-02-04T08:27:02;99379.69;;;-0.34;63.78
41040;BME280;48586;50.122;18.972;2023-02-04T08:29:25;99390.16;;;-0.34;64.70
41040;BME280;48586;50.122;18.972;2023-02-04T08:31:45;99394.16;;;-0.30;64.83
41040;BME280;48586;50.122;18.972;2023-02-04T08:34:11;99408.19;;;-0.31;64.93
41040;BME280;48586;50.122;18.972;2023-02-04T08:36:32;99412.47;;;-0.30;65.67
41040;BME280;48586;50.122;18.972;2023-02-04T08:38:52;99429.16;;;-0.21;65.33
41040;BME280;48586;50.122;18.972;2023-02-04T08:41:12;99429.66;;;-0.17;65.65
41040;BME280;48586;50.122;18.972;2023-02-04T08:43:33;99434.47;;;-0.13;65.29
41040;BME280;48586;50.122;18.972;2023-02-04T08:45:56;99435.03;;;-0.09;66.15
41040;BME280;48586;50.122;18.972;2023-02-04T08:48:16;99450.47;;;-0.06;65.81
41040;BME280;48586;50.122;18.972;2023-02-04T08:50:35;99446.88;;;-0.05;65.39
41040;BME280;48586;50.122;18.972;2023-02-04T08:52:55;99453.63;;;-0.02;65.72
41040;BME280;48586;50.122;18.972;2023-02-04T08:55:15;99449.91;;;0.00;65.01
41040;BME280;48586;50.122;18.972;2023-02-04T08:57:35;99475.41;;;-0.02;63.46
41040;BME280;48586;50.122;18.972;2023-02-04T08:59:56;99481.22;;;0.02;64.45
41040;BME280;48586;50.122;18.972;2023-02-04T09:02:15;99476.38;;;0.07;64.75
41040;BME280;48586;50.122;18.972;2023-02-04T09:04:35;99479.53;;;0.10;64.67
41040;BME280;48586;50.122;18.972;2023-02-04T09:06:55;99486.69;;;0.18;64.91
41040;BME280;48586;50.122;18.972;2023-02-04T09:09:15;99488.91;;;0.23;64.33
41040;BME280;48586;50.122;18.972;2023-02-04T09:11:35;99483.50;;;0.24;63.25
41040;BME280;48586;50.122;18.972;2023-02-04T09:13:55;99493.00;;;0.25;63.69
41040;BME280;48586;50.122;18.972;2023-02-04T09:16:18;99506.38;;;0.32;64.27
41040;BME280;48586;50.122;18.972;2023-02-04T09:18:38;99510.78;;;0.41;63.97
41040;BME280;48586;50.122;18.972;2023-02-04T09:20:58;99519.69;;;0.58;65.25
41040;BME280;48586;50.122;18.972;2023-02-04T09:23:19;99521.84;;;0.72;64.54
41040;BME280;48586;50.122;18.972;2023-02-04T09:25:39;99526.50;;;0.88;63.29
41040;BME280;48586;50.122;18.972;2023-02-04T09:27:59;99525.63;;;0.97;62.63
41040;BME280;48586;50.122;18.972;2023-02-04T09:30:19;99534.47;;;0.96;61.90
41040;BME280;48586;50.122;18.972;2023-02-04T09:32:41;99548.53;;;0.95;63.10
41040;BME280;48586;50.122;18.972;2023-02-04T09:35:00;99540.00;;;0.93;62.70
41040;BME280;48586;50.122;18.972;2023-02-04T09:37:20;99554.59;;;0.95;64.56
41040;BME280;48586;50.122;18.972;2023-02-04T09:39:42;99555.44;;;0.96;64.09
41040;BME280;48586;50.122;18.972;2023-02-04T09:42:02;99559.03;;;0.95;64.17
41040;BME280;48586;50.122;18.972;2023-02-04T09:44:25;99564.28;;;0.95;64.39
41040;BME280;48586;50.122;18.972;2023-02-04T09:46:52;99564.00;;;0.98;64.60
41040;BME280;48586;50.122;18.972;2023-02-04T09:49:19;99572.25;;;1.03;63.91
41040;BME280;48586;50.122;18.972;2023-02-04T09:51:41;99576.94;;;1.09;63.77
41040;BME280;48586;50.122;18.972;2023-02-04T09:54:07;99585.19;;;1.14;63.74
41040;BME280;48586;50.122;18.972;2023-02-04T09:56:31;99588.75;;;1.23;63.29
41040;BME280;48586;50.122;18.972;2023-02-04T09:58:51;99599.63;;;1.28;60.92
41040;BME280;48586;50.122;18.972;2023-02-04T10:01:14;99595.38;;;1.27;60.23
41040;BME280;48586;50.122;18.972;2023-02-04T10:03:35;99595.50;;;1.26;59.68
41040;BME280;48586;50.122;18.972;2023-02-04T10:06:08;99592.31;;;1.32;60.95
41040;BME280;48586;50.122;18.972;2023-02-04T10:08:30;99597.75;;;1.48;60.94
41040;BME280;48586;50.122;18.972;2023-02-04T10:10:52;99594.84;;;1.69;60.58
41040;BME280;48586;50.122;18.972;2023-02-04T10:13:17;99593.91;;;1.88;60.16
41040;BME280;48586;50.122;18.972;2023-02-04T10:15:41;99598.53;;;1.94;58.40
41040;BME280;48586;50.122;18.972;2023-02-04T10:18:05;99602.31;;;1.91;58.38
41040;BME280;48586;50.122;18.972;2023-02-04T10:20:27;99613.28;;;1.87;57.81
41040;BME280;48586;50.122;18.972;2023-02-04T10:22:52;99607.78;;;1.80;58.00
41040;BME280;48586;50.122;18.972;2023-02-04T10:25:16;99615.13;;;1.77;57.52
41040;BME280;48586;50.122;18.972;2023-02-04T10:27:47;99615.44;;;1.73;57.25
41040;BME280;48586;50.122;18.972;2023-02-04T10:30:18;99616.91;;;1.76;57.32
41040;BME280;48586;50.122;18.972;2023-02-04T10:32:39;99603.94;;;1.75;56.91
41040;BME280;48586;50.122;18.972;2023-02-04T10:35:01;99624.78;;;1.76;57.67
41040;BME280;48586;50.122;18.972;2023-02-04T10:37:27;99631.19;;;1.73;57.08
41040;BME280;48586;50.122;18.972;2023-02-04T10:39:52;99625.53;;;1.68;55.24
41040;BME280;48586;50.122;18.972;2023-02-04T10:42:20;99636.09;;;1.59;55.48
41040;BME280;48586;50.122;18.972;2023-02-04T10:44:46;99643.16;;;1.58;55.61
41040;BME280;48586;50.122;18.972;2023-02-04T10:47:14;99644.25;;;1.56;55.73
41040;BME280;48586;50.122;18.972;2023-02-04T10:49:38;99638.50;;;1.52;56.39
41040;BME280;48586;50.122;18.972;2023-02-04T10:51:57;99653.13;;;1.55;57.18
41040;BME280;48586;50.122;18.972;2023-02-04T10:54:22;99656.56;;;1.55;54.96
41040;BME280;48586;50.122;18.972;2023-02-04T10:56:50;99658.81;;;1.50;55.75
41040;BME280;48586;50.122;18.972;2023-02-04T10:59:22;99657.97;;;1.50;54.36
41040;BME280;48586;50.122;18.972;2023-02-04T11:01:44;99662.94;;;1.53;56.39
41040;BME280;48586;50.122;18.972;2023-02-04T11:04:07;99669.50;;;1.66;57.66
41040;BME280;48586;50.122;18.972;2023-02-04T11:06:31;99666.63;;;1.87;55.81
41040;BME280;48586;50.122;18.972;2023-02-04T11:08:50;99664.69;;;2.07;55.45
41040;BME280;48586;50.122;18.972;2023-02-04T11:11:22;99676.19;;;2.24;55.11
41040;BME280;48586;50.122;18.972;2023-02-04T11:13:57;99679.75;;;2.33;54.25
41040;BME280;48586;50.122;18.972;2023-02-04T11:16:25;99675.16;;;2.35;54.05
41040;BME280;48586;50.122;18.972;2023-02-04T11:18:50;99678.91;;;2.32;53.26
41040;BME280;48586;50.122;18.972;2023-02-04T11:21:20;99676.44;;;2.31;54.40
41040;BME280;48586;50.122;18.972;2023-02-04T11:23:42;99679.75;;;2.33;53.76
41040;BME280;48586;50.122;18.972;2023-02-04T11:26:08;99674.41;;;2.24;51.40
41040;BME280;48586;50.122;18.972;2023-02-04T11:28:55;99688.53;;;2.23;52.61
41040;BME280;48586;50.122;18.972;2023-02-04T11:31:40;99690.69;;;2.28;52.99
41040;BME280;48586;50.122;18.972;2023-02-04T11:34:11;99675.28;;;2.15;51.24
41040;BME280;48586;50.122;18.972;2023-02-04T11:36:55;99693.34;;;2.28;52.44